2017-10-19 - 19:59:00

SR: 0602 - SS: 1627

RWY: 25


OBSERVATION: n/a

RVR Mean 1 min: (Runway Visual Range)
A: P2000 - B: P2000 - C: P2000
RVR Mean 10 min:
A: P2000 - B: P2000 - C: P2000
WARNING: n/a
W25: 010-210(150-03kt) 01kt-05kt
W07: 070-140(090-03kt) 03kt-05kt
OTHER: n/a

QFE: (tats�chlicher Luftdruck) 1004.3 hPa = 29.64 inHg
QNH:(Luftdruck auf Meeresh�he) 1010.1 hPa = 29.82 inHg
Temperatur: 14.2 �C
Dew point(Taupunkt): 11.8 �C

METAR:  00243 SADL31 EDDG 191950 METAR EDDG 191950Z 12003KT 080V160 CAVOK 15/12 Q1010 NOSIG= 
METAR (aus weather.noaa.gov):
2017/10/19 19:50 EDDG 191950Z 12003KT 080V160 CAVOK 15/12 Q1010 NOSIG

TAF (aus weather.noaa.gov):
2017/10/19 18:27 TAF EDDG 191700Z 1918/2018 VRB03KT CAVOK BECMG 1918/1920 15005KT TEMPO 2007/2011 RA BECMG 2008/2010 20010KT PROB30 TEMPO 2011/2015 22015G25KT